Williamsport, Pennsylvania
Current Conditions -  °F | °C
As of 4:42 PM on Wednesday 26 Nov 2014 (Local Time) from KIPT Reporting Station
Light Snow Light Snow  
Wind Chill: -3°   Ceiling: 1000
Heat Index:   Visibility: 1mi
Dew Point: -1°   Wind: 8mph
Humidity: 89%   Direction: 250°WSW
Pressure: 29.99"   Gusts: NA
Location:  41.24°N, 77°W
Report Text: KIPT 262142Z 25007KT 1SM -SN BR SCT004 BKN010 OVC015 01/M01 A2999 RMK AO2 P0006 T00061011
Loading
Personal Weather Stations






























Interactive Weather Map New forecast layout! Learn more

10-Day Weather Forecast

Advertisements
Track Severe Weather on mobile